Peru, IL

2:30 AM CDT on July 27, 2017 (GMT -0500)
Illinois Valley Regional-Duncan

Weather History for KVYS - December, 2014

Change the Weather History Date:

Sunday, December 21, 2014

  Actual Average Record
Temperature  
Mean Temperature 36 °F -  
Max Temperature 39 °F 32 °F 60 °F (1967)
Min Temperature 33 °F 15 °F -17 °F (1963)
Degree Days  
Heating Degree Days 29    
Moisture  
Dew Point 31 °F    
Average Humidity 84    
Maximum Humidity 90    
Minimum Humidity 77    
Precipitation  
Precipitation 0.00 in - - ()
Sea Level Pressure  
Sea Level Pressure 30.11 in    
Wind  
Wind Speed 11 mph (SSE)    
Max Wind Speed 18 mph    
Max Gust Speed 26 mph    
Visibility 8 miles    
Events      
Averages and records for this station are not official NWS values.
T = Trace of Precipitation, MM = Missing Value Source: NWS Daily Summary

Daily Weather History Graph

Daily Weather History Graph

Search for Another Location

Airport or City:

Trip Planner

Search our weather history database for the weather conditions in past years. The results will help you decide how hot, cold, wet, or windy it might be!

Date:

Astronomy

Dec. 21, 2014 Rise Set
Actual Time 7:19 AM CST 4:30 PM CST
Civil Twilight 6:47 AM CST 5:01 PM CST
Nautical Twilight 6:12 AM CST 5:36 PM CST
Astronomical Twilight 5:39 AM CST 6:10 PM CST
Moon 6:34 AM CST (12/21) 4:37 PM CST (12/21)
Length of Visible Light 10h 13m
Length of Day
9h 11m
Waning Crescent, 0% of the Moon is Illuminated
Dec 21
Waning Crescent
Dec 21
New
Dec 28
First Quarter
Jan 4
Full
Jan 13
Last Quarter

Hourly Weather History & Observations

Time (CST) Temp. Windchill Dew Point Humidity Pressure Visibility Wind Dir Wind Speed Gust Speed Precip Events Conditions
12:15 AM 33.1 °F 26.9 °F 30.2 °F 89% 30.23 in 7.0 mi SSE 6.9 mph - N/A   Overcast
12:35 AM 33.1 °F 26.1 °F 30.2 °F 89% 30.22 in 7.0 mi SSE 8.1 mph - N/A   Overcast
12:55 AM 33.1 °F 25.5 °F 30.2 °F 89% 30.22 in 7.0 mi SSE 9.2 mph - N/A   Overcast
1:15 AM 33.3 °F 27.1 °F 30.6 °F 90% 30.22 in 7.0 mi South 6.9 mph - N/A   Overcast
1:35 AM 33.4 °F 25.9 °F 30.4 °F 89% 30.22 in 7.0 mi South 9.2 mph - N/A   Overcast
1:55 AM 33.3 °F 25.7 °F 30.7 °F 90% 30.22 in 7.0 mi South 9.2 mph - N/A   Overcast
2:15 AM 33.4 °F 25.9 °F 30.7 °F 90% 30.23 in 7.0 mi South 9.2 mph - N/A   Overcast
2:35 AM 33.8 °F 27.0 °F 31.1 °F 90% 30.22 in 7.0 mi South 8.1 mph - N/A   Overcast
2:55 AM 34.3 °F 27.7 °F 31.1 °F 88% 30.21 in 7.0 mi South 8.1 mph - N/A   Overcast
3:15 AM 34.3 °F 27.0 °F 31.1 °F 88% 30.20 in 7.0 mi South 9.2 mph - N/A   Overcast
3:35 AM 34.3 °F 27.0 °F 31.1 °F 88% 30.20 in 7.0 mi South 9.2 mph - N/A   Overcast
3:55 AM 34.3 °F 27.7 °F 31.1 °F 88% 30.20 in 7.0 mi South 8.1 mph - N/A   Overcast
4:15 AM 34.3 °F 27.0 °F 31.1 °F 88% 30.20 in 7.0 mi South 9.2 mph - N/A   Overcast
4:35 AM 34.3 °F 27.0 °F 31.1 °F 88% 30.19 in 7.0 mi South 9.2 mph - N/A   Overcast
4:55 AM 34.3 °F 27.7 °F 31.1 °F 88% 30.19 in 7.0 mi South 8.1 mph - N/A   Overcast
5:15 AM 34.3 °F 26.5 °F 31.1 °F 88% 30.19 in 7.0 mi South 10.4 mph - N/A   Overcast
5:35 AM 34.3 °F 27.0 °F 31.1 °F 88% 30.19 in 7.0 mi South 9.2 mph - N/A   Overcast
5:55 AM 34.3 °F 26.5 °F 31.1 °F 88% 30.19 in 7.0 mi South 10.4 mph - N/A   Overcast
6:15 AM 34.3 °F 26.5 °F 31.1 °F 88% 30.19 in 7.0 mi South 10.4 mph - N/A   Overcast
6:35 AM 34.3 °F 25.9 °F 31.3 °F 89% 30.19 in 7.0 mi South 11.5 mph - N/A   Overcast
6:55 AM 34.3 °F 26.5 °F 31.5 °F 89% 30.19 in 7.0 mi South 10.4 mph - N/A   Overcast
7:15 AM 34.3 °F 27.0 °F 31.5 °F 89% 30.19 in 7.0 mi South 9.2 mph - N/A   Overcast
7:35 AM 34.3 °F 26.5 °F 31.5 °F 89% 30.19 in 7.0 mi South 10.4 mph - N/A   Overcast
7:55 AM 34.3 °F 26.5 °F 31.5 °F 89% 30.18 in 5.0 mi South 10.4 mph - N/A   Overcast
8:15 AM 34.3 °F 27.0 °F 31.5 °F 89% 30.18 in 5.0 mi SSE 9.2 mph - N/A   Overcast
8:35 AM 34.3 °F 26.5 °F 31.5 °F 89% 30.17 in 5.0 mi South 10.4 mph - N/A   Overcast
8:55 AM 34.5 °F 27.3 °F 31.5 °F 89% 30.17 in 5.0 mi SSE 9.2 mph - N/A   Overcast
9:15 AM 34.7 °F 26.4 °F 31.6 °F 89% 30.17 in 5.0 mi South 11.5 mph - N/A   Overcast
9:35 AM 35.1 °F 27.4 °F 32.0 °F 89% 30.17 in 5.0 mi South 10.4 mph - N/A   Overcast
9:55 AM 35.6 °F 27.1 °F 32.0 °F 87% 30.17 in 5.0 mi South 12.7 mph - N/A   Overcast
10:15 AM 36.0 °F 27.5 °F 32.0 °F 86% 30.17 in 5.0 mi South 12.7 mph - N/A   Overcast
10:35 AM 36.9 °F 28.7 °F 32.2 °F 83% 30.17 in 7.0 mi South 12.7 mph - N/A   Overcast
10:55 AM 36.9 °F 28.2 °F 32.2 °F 83% 30.16 in 5.0 mi South 13.8 mph - N/A   Haze
11:15 AM 37.6 °F 29.1 °F 32.7 °F 83% 30.15 in 7.0 mi South 13.8 mph - N/A   Overcast
11:35 AM 37.8 °F 29.0 °F 32.5 °F 81% 30.14 in 7.0 mi South 15.0 mph - N/A   Overcast
11:55 AM 38.3 °F 30.5 °F 32.7 °F 80% 30.12 in 7.0 mi South 12.7 mph 20.7 mph N/A   Overcast
12:15 PM 37.6 °F 30.0 °F 32.4 °F 81% 30.11 in 7.0 mi South 11.5 mph - N/A   Overcast
12:35 PM 38.3 °F 30.1 °F 32.9 °F 81% 30.10 in 7.0 mi South 13.8 mph - N/A   Overcast
12:55 PM 38.7 °F 30.1 °F 33.1 °F 80% 30.09 in 7.0 mi South 15.0 mph 20.7 mph N/A   Overcast
1:15 PM 39.4 °F 31.1 °F 33.4 °F 79% 30.08 in 10.0 mi South 15.0 mph - N/A   Overcast
1:35 PM 39.6 °F 31.0 °F 33.1 °F 78% 30.07 in 10.0 mi South 16.1 mph - N/A   Overcast
1:55 PM 39.6 °F 31.3 °F 32.9 °F 77% 30.06 in 10.0 mi South 15.0 mph - N/A   Overcast
2:15 PM 39.6 °F 31.3 °F 32.9 °F 77% 30.06 in 10.0 mi South 15.0 mph - N/A   Overcast
2:35 PM 38.5 °F 29.9 °F 32.0 °F 78% 30.05 in 10.0 mi South 15.0 mph 20.7 mph N/A   Overcast
2:55 PM 38.3 °F 29.0 °F 31.8 °F 77% 30.05 in 10.0 mi South 17.3 mph 21.9 mph N/A   Overcast
3:15 PM 38.3 °F 28.7 °F 31.8 °F 77% 30.05 in 10.0 mi SSE 18.4 mph - N/A   Overcast
3:35 PM 38.3 °F 29.3 °F 32.0 °F 78% 30.05 in 10.0 mi SSE 16.1 mph 20.7 mph N/A   Overcast
3:55 PM 37.8 °F 28.3 °F 31.6 °F 79% 30.05 in 10.0 mi SSE 17.3 mph - N/A   Overcast
4:15 PM 37.6 °F 28.4 °F 31.6 °F 79% 30.05 in 10.0 mi South 16.1 mph 20.7 mph N/A   Overcast
4:35 PM 37.4 °F 27.5 °F 31.6 °F 80% 30.05 in 10.0 mi SSE 18.4 mph 21.9 mph N/A   Overcast
4:55 PM 36.9 °F 28.2 °F 31.8 °F 82% 30.05 in 10.0 mi SSE 13.8 mph - N/A   Overcast
5:15 PM 36.9 °F 27.8 °F 31.8 °F 82% 30.05 in 10.0 mi SSE 15.0 mph - N/A   Overcast
5:35 PM 36.5 °F 28.7 °F 31.8 °F 83% 30.05 in 7.0 mi SSE 11.5 mph - N/A   Overcast
5:55 PM 36.5 °F 27.4 °F 31.6 °F 83% 30.04 in 10.0 mi SSE 15.0 mph - N/A   Overcast
6:15 PM 36.1 °F 26.2 °F 31.5 °F 83% 30.04 in 10.0 mi SSE 17.3 mph 20.7 mph N/A   Overcast
6:35 PM 36.3 °F 26.4 °F 31.5 °F 83% 30.04 in 10.0 mi SSE 17.3 mph - N/A   Overcast
6:55 PM 36.5 °F 26.3 °F 31.5 °F 82% 30.03 in 10.0 mi SE 18.4 mph 21.9 mph N/A   Overcast
7:15 PM 36.5 °F 27.8 °F 31.6 °F 83% 30.03 in 10.0 mi SE 13.8 mph - N/A   Overcast
7:35 PM 36.5 °F 26.7 °F 31.6 °F 83% 30.02 in 10.0 mi SSE 17.3 mph - N/A   Overcast
7:55 PM 36.5 °F 27.4 °F 31.6 °F 83% 30.02 in 10.0 mi SE 15.0 mph 21.9 mph N/A   Overcast
8:15 PM 36.7 °F 26.9 °F 31.8 °F 83% 30.02 in 10.0 mi SE 17.3 mph 24.2 mph N/A   Overcast
8:35 PM 36.5 °F 26.7 °F 31.5 °F 82% 30.02 in 10.0 mi SE 17.3 mph 20.7 mph N/A   Overcast
8:55 PM 36.5 °F 27.4 °F 31.1 °F 81% 30.01 in 10.0 mi SSE 15.0 mph 23.0 mph N/A   Overcast
9:15 PM 36.5 °F 26.7 °F 30.9 °F 80% 30.01 in 10.0 mi SSE 17.3 mph 26.5 mph N/A   Overcast
9:35 PM 36.0 °F 26.7 °F 30.2 °F 80% 30.00 in 10.0 mi SSE 15.0 mph 20.7 mph N/A   Overcast
9:55 PM 35.6 °F 26.6 °F 30.4 °F 81% 30.00 in 10.0 mi SSE 13.8 mph 21.9 mph N/A   Overcast
10:15 PM 35.6 °F 26.6 °F 30.6 °F 82% 30.00 in 10.0 mi SSE 13.8 mph - N/A   Overcast
10:35 PM 35.2 °F 26.6 °F 30.2 °F 82% 30.00 in 10.0 mi SSE 12.7 mph - N/A   Overcast
10:55 PM 35.1 °F 25.2 °F 30.6 °F 84% 29.99 in 7.0 mi SE 16.1 mph - N/A   Overcast
11:15 PM 34.7 °F 25.5 °F 30.6 °F 85% 29.98 in 7.0 mi SE 13.8 mph - N/A   Overcast
11:35 PM 34.7 °F 25.5 °F 30.6 °F 85% 29.98 in 7.0 mi SE 13.8 mph - N/A   Overcast
11:55 PM 34.3 °F 25.5 °F 30.7 °F 87% 29.97 in 7.0 mi SE 12.7 mph 17.3 mph N/A   Overcast